createdAt,value
2022-08-08T00:00:53.736Z,14.10
2022-08-08T00:09:12.262Z,14.10
2022-08-08T00:12:06.985Z,14.10
2022-08-08T00:14:59.818Z,14.00
2022-08-08T00:18:03.538Z,14.00
2022-08-08T00:20:53.317Z,14.00
2022-08-08T00:28:50.818Z,13.90
2022-08-08T00:32:20.055Z,13.90
2022-08-08T00:35:06.733Z,13.90
2022-08-08T00:38:31.625Z,13.90
2022-08-08T00:42:13.943Z,13.80
2022-08-08T00:45:53.414Z,13.80
2022-08-08T00:49:01.262Z,13.80
2022-08-08T00:51:42.414Z,13.70
2022-08-08T00:54:34.321Z,13.70
2022-08-08T00:57:40.904Z,13.70
2022-08-08T01:00:24.500Z,13.70
2022-08-08T01:04:02.189Z,13.70
2022-08-08T01:07:11.608Z,13.70
2022-08-08T01:10:06.039Z,13.60
2022-08-08T01:18:25.344Z,13.50
2022-08-08T01:22:03.895Z,13.50
2022-08-08T01:25:19.226Z,13.60
2022-08-08T01:28:18.034Z,13.60
2022-08-08T01:32:06.304Z,13.60
2022-08-08T01:34:30.449Z,13.60
2022-08-08T01:37:57.174Z,13.50
2022-08-08T01:41:05.703Z,13.40
2022-08-08T01:43:50.683Z,13.40
2022-08-08T01:48:15.737Z,13.40
2022-08-08T01:50:19.874Z,13.40
2022-08-08T01:55:16.434Z,13.20
2022-08-08T01:57:17.563Z,13.30
2022-08-08T02:00:18.328Z,13.30
2022-08-08T02:09:17.544Z,13.20
2022-08-08T02:11:58.819Z,13.10
2022-08-08T02:15:13.029Z,13.10
2022-08-08T02:18:03.246Z,13.00
2022-08-08T02:21:29.817Z,13.00
2022-08-08T02:24:26.452Z,13.00
2022-08-08T02:27:21.673Z,13.00
2022-08-08T02:30:32.595Z,13.00
2022-08-08T02:34:00.630Z,13.00
2022-08-08T02:37:01.399Z,13.00
2022-08-08T02:40:05.124Z,12.90
2022-08-08T02:44:34.949Z,12.90
2022-08-08T02:46:27.855Z,12.90
2022-08-08T02:49:01.812Z,12.80
2022-08-08T02:51:56.386Z,12.70
2022-08-08T02:54:53.872Z,12.70
2022-08-08T02:57:45.879Z,12.80
2022-08-08T03:00:38.824Z,12.90
2022-08-08T03:03:46.234Z,12.90
2022-08-08T03:07:23.471Z,12.90
2022-08-08T03:10:37.774Z,12.80
2022-08-08T03:15:54.611Z,12.80
2022-08-08T03:16:35.924Z,12.70
2022-08-08T03:19:25.583Z,12.70
2022-08-08T03:21:59.904Z,12.60
2022-08-08T03:24:37.213Z,12.60
2022-08-08T03:27:56.695Z,12.60
2022-08-08T03:32:06.547Z,12.60
2022-08-08T03:34:40.456Z,12.60
2022-08-08T03:37:58.905Z,12.60
2022-08-08T03:44:34.997Z,12.50
2022-08-08T03:49:15.300Z,12.50
2022-08-08T03:51:51.338Z,12.40
2022-08-08T04:01:02.589Z,12.40
2022-08-08T04:03:59.656Z,12.50
2022-08-08T04:06:41.767Z,12.40
2022-08-08T04:09:19.595Z,12.40
2022-08-08T04:12:00.623Z,12.40
2022-08-08T04:19:48.945Z,12.50
2022-08-08T04:22:29.516Z,12.50
2022-08-08T04:25:02.239Z,12.50
2022-08-08T04:28:02.535Z,12.50
2022-08-08T04:30:20.854Z,12.60
2022-08-08T04:32:53.655Z,12.60
2022-08-08T04:35:25.210Z,12.70
2022-08-08T04:37:58.357Z,12.70
2022-08-08T04:41:21.305Z,12.70
2022-08-08T04:43:54.238Z,12.80
2022-08-08T04:46:30.940Z,12.80
2022-08-08T04:49:01.797Z,12.90
2022-08-08T04:51:55.041Z,13.00
2022-08-08T04:54:38.312Z,13.10
2022-08-08T04:57:12.354Z,13.20
2022-08-08T04:59:48.230Z,13.20
2022-08-08T05:02:16.663Z,13.30
2022-08-08T05:04:52.001Z,13.40
2022-08-08T05:07:37.923Z,13.60
2022-08-08T05:10:13.645Z,13.70
2022-08-08T05:13:00.014Z,14.10
2022-08-08T05:16:54.581Z,14.30
2022-08-08T05:18:22.021Z,14.50
2022-08-08T05:20:56.288Z,14.70
2022-08-08T05:23:25.213Z,14.90
2022-08-08T05:26:00.387Z,15.10
2022-08-08T05:28:56.204Z,15.20
2022-08-08T05:32:04.139Z,15.30
2022-08-08T05:34:26.390Z,15.50
2022-08-08T05:37:52.354Z,15.60
2022-08-08T05:40:46.494Z,15.90
2022-08-08T05:43:40.063Z,16.10
2022-08-08T05:46:24.427Z,16.40
2022-08-08T05:48:54.977Z,16.80
2022-08-08T05:51:48.740Z,17.10
2022-08-08T05:54:28.352Z,17.50
2022-08-08T05:57:59.573Z,18.00
2022-08-08T06:00:22.298Z,18.20
2022-08-08T06:03:25.452Z,18.40
2022-08-08T06:06:13.947Z,18.60
2022-08-08T06:09:41.811Z,18.80
2022-08-08T06:11:54.327Z,19.10
2022-08-08T06:14:27.884Z,19.40
2022-08-08T06:17:03.526Z,19.80
2022-08-08T06:19:45.859Z,20.20
2022-08-08T06:25:07.856Z,21.10
2022-08-08T06:27:55.198Z,21.70
2022-08-08T06:30:33.538Z,22.10
2022-08-08T06:33:05.500Z,22.40
2022-08-08T06:36:07.070Z,22.80
2022-08-08T06:38:39.366Z,23.10
2022-08-08T06:41:13.323Z,23.30
2022-08-08T06:43:57.233Z,23.50
2022-08-08T06:46:33.897Z,23.70
2022-08-08T06:49:05.773Z,24.00
2022-08-08T06:51:47.196Z,24.00
2022-08-08T06:54:23.741Z,24.30
2022-08-08T06:56:53.090Z,24.60
2022-08-08T06:59:22.667Z,24.60
2022-08-08T07:02:27.351Z,24.80
2022-08-08T07:05:02.566Z,25.10
2022-08-08T07:08:06.850Z,25.20
2022-08-08T07:10:49.567Z,25.50
2022-08-08T07:13:22.902Z,25.60
2022-08-08T07:16:18.439Z,25.90
2022-08-08T07:18:55.983Z,26.20
2022-08-08T07:21:34.423Z,26.20
2022-08-08T07:24:25.733Z,26.40
2022-08-08T07:27:05.802Z,26.50
2022-08-08T07:30:02.235Z,26.70
2022-08-08T07:32:33.393Z,27.00
2022-08-08T07:35:11.726Z,27.20
2022-08-08T07:38:04.256Z,27.50
2022-08-08T07:40:48.457Z,27.60
2022-08-08T07:43:32.112Z,27.60
2022-08-08T07:46:24.545Z,27.40
2022-08-08T07:49:09.015Z,27.40
2022-08-08T07:51:45.392Z,27.90
2022-08-08T07:55:02.807Z,27.90
2022-08-08T07:57:48.866Z,28.30
2022-08-08T08:00:23.482Z,28.70
2022-08-08T08:03:23.495Z,28.90
2022-08-08T08:06:00.014Z,29.10
2022-08-08T08:13:42.935Z,28.10
2022-08-08T08:16:27.845Z,27.60
2022-08-08T08:19:05.576Z,28.90
2022-08-08T08:21:53.527Z,29.20
2022-08-08T08:24:58.906Z,28.50
2022-08-08T08:27:46.547Z,29.10
2022-08-08T08:30:16.273Z,29.80
2022-08-08T08:32:50.987Z,30.10
2022-08-08T08:35:29.965Z,30.00
2022-08-08T08:38:25.648Z,30.50
2022-08-08T08:41:17.985Z,30.50
2022-08-08T08:43:50.855Z,30.60
2022-08-08T08:46:25.827Z,30.50
2022-08-08T08:48:56.534Z,30.60
2022-08-08T08:51:30.770Z,30.40
2022-08-08T08:54:03.932Z,28.20
2022-08-08T08:56:46.364Z,27.80
2022-08-08T08:59:30.518Z,27.70
2022-08-08T09:02:21.741Z,27.30
2022-08-08T09:04:59.872Z,28.80
2022-08-08T09:07:39.176Z,29.70
2022-08-08T09:10:19.730Z,28.80
2022-08-08T09:12:51.642Z,29.20
2022-08-08T09:15:41.510Z,30.00
2022-08-08T09:18:19.262Z,30.10
2022-08-08T09:21:57.055Z,30.70
2022-08-08T09:23:42.904Z,31.40
2022-08-08T09:26:32.289Z,31.70
2022-08-08T09:29:37.492Z,30.40
2022-08-08T09:32:50.341Z,31.60
2022-08-08T09:35:37.332Z,31.50
2022-08-08T09:38:17.606Z,31.70
2022-08-08T09:40:55.622Z,32.00
2022-08-08T09:44:04.763Z,32.00
2022-08-08T09:46:30.740Z,32.30
2022-08-08T09:49:42.401Z,32.10
2022-08-08T09:52:56.783Z,30.10
2022-08-08T09:55:17.444Z,29.80
2022-08-08T09:58:33.145Z,30.60
2022-08-08T10:01:14.453Z,30.70
2022-08-08T10:03:56.235Z,31.40
2022-08-08T10:06:44.910Z,31.00
2022-08-08T10:09:14.196Z,30.60
2022-08-08T10:12:26.715Z,31.60
2022-08-08T10:14:42.584Z,32.10
2022-08-08T10:17:57.349Z,32.70
2022-08-08T10:20:04.105Z,33.10
2022-08-08T10:22:35.918Z,33.80
2022-08-08T10:25:15.841Z,34.20
2022-08-08T10:27:49.003Z,33.70
2022-08-08T10:31:00.835Z,33.40
2022-08-08T10:33:09.991Z,33.90
2022-08-08T10:36:09.110Z,33.30
2022-08-08T10:38:35.194Z,33.80
2022-08-08T10:41:20.292Z,34.30
2022-08-08T10:43:52.095Z,34.50
2022-08-08T10:46:39.944Z,34.50
2022-08-08T10:49:09.480Z,34.40
2022-08-08T10:51:54.867Z,33.90
2022-08-08T10:54:26.943Z,33.60
2022-08-08T10:57:04.619Z,32.20
2022-08-08T10:59:39.712Z,31.70
2022-08-08T11:02:10.683Z,30.60
2022-08-08T11:04:53.423Z,31.40
2022-08-08T11:08:31.098Z,32.40
2022-08-08T11:10:29.402Z,33.40
2022-08-08T11:13:27.899Z,33.90
2022-08-08T11:15:58.827Z,34.30
2022-08-08T11:18:31.424Z,34.80
2022-08-08T11:21:09.818Z,34.80
2022-08-08T11:23:42.968Z,35.10
2022-08-08T11:26:18.920Z,35.40
2022-08-08T11:28:50.218Z,35.70
2022-08-08T11:31:22.118Z,35.40
2022-08-08T11:34:03.112Z,34.70
2022-08-08T11:36:38.394Z,33.90
2022-08-08T11:39:12.965Z,34.60
2022-08-08T11:41:43.317Z,35.10
2022-08-08T11:44:15.039Z,33.70
2022-08-08T11:46:44.463Z,32.90
2022-08-08T11:49:18.007Z,31.80
2022-08-08T11:51:49.753Z,32.20
2022-08-08T11:54:44.756Z,32.80
2022-08-08T11:57:30.248Z,33.70
2022-08-08T12:00:56.333Z,34.30
2022-08-08T12:03:34.362Z,32.00
2022-08-08T12:06:17.059Z,32.30
2022-08-08T12:08:52.361Z,31.70
2022-08-08T12:11:23.265Z,33.10
2022-08-08T12:14:04.583Z,33.60
2022-08-08T12:16:46.516Z,34.30
2022-08-08T12:19:15.441Z,34.70
2022-08-08T12:22:00.726Z,35.10
2022-08-08T12:24:51.333Z,34.80
2022-08-08T12:27:22.554Z,34.80
2022-08-08T12:30:01.863Z,34.70
2022-08-08T12:32:43.655Z,34.80
2022-08-08T12:35:21.185Z,35.10
2022-08-08T12:38:09.068Z,35.70
2022-08-08T12:40:55.976Z,35.80
2022-08-08T12:43:46.557Z,36.10
2022-08-08T12:46:25.201Z,36.50
2022-08-08T12:51:58.670Z,36.00
2022-08-08T12:54:36.803Z,36.00
2022-08-08T12:57:23.300Z,33.50
2022-08-08T13:00:03.556Z,34.90
2022-08-08T13:02:42.245Z,34.90
2022-08-08T13:06:03.587Z,35.10
2022-08-08T13:08:16.701Z,35.00
2022-08-08T13:10:56.200Z,35.40
2022-08-08T13:13:35.447Z,35.30
2022-08-08T13:16:19.195Z,35.10
2022-08-08T13:18:58.175Z,34.60
2022-08-08T13:21:36.545Z,33.80
2022-08-08T13:24:38.727Z,33.90
2022-08-08T13:27:13.679Z,33.50
2022-08-08T13:30:06.331Z,33.30
2022-08-08T13:32:36.556Z,33.40
2022-08-08T13:35:11.805Z,33.30
2022-08-08T13:38:06.583Z,33.30
2022-08-08T13:40:41.370Z,33.30
2022-08-08T13:43:10.078Z,33.10
2022-08-08T13:45:39.119Z,33.20
2022-08-08T13:48:14.415Z,33.50
2022-08-08T13:50:52.506Z,33.70
2022-08-08T13:53:36.450Z,33.50
2022-08-08T13:56:11.393Z,33.80
2022-08-08T13:58:57.379Z,33.90
2022-08-08T14:01:42.045Z,34.20
2022-08-08T14:04:25.037Z,34.70
2022-08-08T14:07:02.853Z,34.20
2022-08-08T14:10:03.385Z,34.30
2022-08-08T14:12:30.114Z,34.70
2022-08-08T14:14:58.886Z,34.90
2022-08-08T14:17:59.298Z,35.10
2022-08-08T14:20:56.526Z,35.20
2022-08-08T14:23:21.184Z,35.30
2022-08-08T14:26:10.824Z,35.20
2022-08-08T14:28:51.855Z,35.30
2022-08-08T14:31:23.527Z,34.70
2022-08-08T14:34:19.528Z,35.00
2022-08-08T14:36:55.848Z,34.90
2022-08-08T14:39:24.965Z,34.80
2022-08-08T14:42:12.302Z,34.70
2022-08-08T14:44:57.311Z,34.70
2022-08-08T14:47:25.662Z,34.40
2022-08-08T14:50:15.252Z,34.40
2022-08-08T14:52:54.821Z,34.40
2022-08-08T14:55:35.305Z,34.50
2022-08-08T14:58:16.986Z,34.40
2022-08-08T15:00:49.441Z,34.30
2022-08-08T15:03:18.387Z,34.20
2022-08-08T15:05:54.031Z,34.10
2022-08-08T15:08:35.689Z,33.80
2022-08-08T15:11:10.506Z,31.50
2022-08-08T15:14:00.955Z,31.30
2022-08-08T15:16:34.727Z,31.00
2022-08-08T15:19:04.757Z,31.80
2022-08-08T15:21:33.575Z,30.90
2022-08-08T15:24:06.327Z,31.70
2022-08-08T15:26:41.907Z,31.80
2022-08-08T15:29:10.098Z,31.80
2022-08-08T15:32:03.751Z,30.80
2022-08-08T15:34:31.829Z,31.40
2022-08-08T15:37:02.974Z,31.70
2022-08-08T15:39:37.718Z,31.90
2022-08-08T15:42:13.347Z,31.80
2022-08-08T15:44:52.370Z,32.10
2022-08-08T15:47:22.622Z,32.20
2022-08-08T15:49:51.439Z,32.30
2022-08-08T15:52:22.040Z,32.30
2022-08-08T15:54:51.689Z,32.30
2022-08-08T15:57:21.096Z,32.30
2022-08-08T16:00:25.392Z,32.40
2022-08-08T16:02:50.255Z,32.20
2022-08-08T16:05:21.408Z,32.00
2022-08-08T16:07:53.967Z,31.80
2022-08-08T16:13:02.254Z,31.70
2022-08-08T16:13:34.499Z,31.60
2022-08-08T16:16:09.174Z,31.60
2022-08-08T16:18:57.235Z,31.60
2022-08-08T16:21:30.824Z,31.50
2022-08-08T16:24:06.679Z,31.40
2022-08-08T16:26:39.858Z,31.30
2022-08-08T16:29:15.441Z,31.20
2022-08-08T16:31:49.213Z,31.10
2022-08-08T16:34:20.968Z,31.00
2022-08-08T16:36:52.733Z,30.80
2022-08-08T16:39:54.934Z,30.60
2022-08-08T16:42:18.124Z,30.50
2022-08-08T16:44:54.333Z,30.30
2022-08-08T16:47:41.815Z,30.20
2022-08-08T16:50:14.351Z,30.10
2022-08-08T16:55:03.013Z,29.90
2022-08-08T16:55:53.023Z,29.80
2022-08-08T16:58:26.492Z,29.80
2022-08-08T17:00:58.204Z,29.50
2022-08-08T17:03:59.078Z,29.40
2022-08-08T17:06:41.773Z,29.30
2022-08-08T17:09:15.297Z,29.20
2022-08-08T17:11:50.892Z,29.10
2022-08-08T17:14:27.113Z,29.00
2022-08-08T17:16:58.647Z,28.80
2022-08-08T17:19:30.381Z,28.70
2022-08-08T17:22:06.194Z,28.60
2022-08-08T17:24:35.676Z,28.40
2022-08-08T17:27:04.833Z,28.20
2022-08-08T17:29:43.412Z,28.10
2022-08-08T17:32:29.047Z,28.00
2022-08-08T17:35:53.706Z,27.80
2022-08-08T17:38:00.805Z,27.70
2022-08-08T17:40:35.960Z,27.60
2022-08-08T17:43:04.146Z,27.40
2022-08-08T17:45:32.844Z,27.30
2022-08-08T17:48:14.755Z,27.20
2022-08-08T17:50:57.574Z,27.10
2022-08-08T17:53:42.774Z,27.00
2022-08-08T17:56:12.414Z,26.90
2022-08-08T17:58:40.372Z,26.80
2022-08-08T18:01:10.210Z,26.70
2022-08-08T18:03:39.078Z,26.70
2022-08-08T18:06:21.979Z,26.60
2022-08-08T18:08:56.409Z,26.50
2022-08-08T18:11:24.321Z,26.40
2022-08-08T18:13:58.638Z,26.30
2022-08-08T18:16:31.128Z,26.20
2022-08-08T18:19:00.562Z,26.10
2022-08-08T18:21:59.025Z,26.00
2022-08-08T18:24:21.419Z,25.90
2022-08-08T18:27:31.153Z,25.80
2022-08-08T18:30:00.722Z,25.70
2022-08-08T18:32:29.947Z,25.60
2022-08-08T18:34:58.903Z,25.50
2022-08-08T18:37:34.145Z,25.40
2022-08-08T18:40:07.222Z,25.20
2022-08-08T18:42:45.728Z,25.10
2022-08-08T18:46:06.165Z,25.00
2022-08-08T18:48:18.168Z,24.80
2022-08-08T18:50:58.090Z,24.70
2022-08-08T18:53:58.121Z,24.60
2022-08-08T18:56:25.688Z,24.40
2022-08-08T18:58:54.224Z,24.20
2022-08-08T19:02:17.938Z,24.10
2022-08-08T19:04:12.719Z,24.00
2022-08-08T19:06:47.093Z,23.90
2022-08-08T19:09:48.345Z,23.80
2022-08-08T19:12:16.147Z,23.70
2022-08-08T19:14:45.002Z,23.60
2022-08-08T19:17:28.650Z,23.60
2022-08-08T19:20:02.126Z,23.50
2022-08-08T19:22:31.893Z,23.50
2022-08-08T19:25:29.638Z,23.30
2022-08-08T19:27:56.283Z,23.30
2022-08-08T19:30:26.861Z,23.20
2022-08-08T19:33:03.358Z,23.10
2022-08-08T19:35:45.431Z,23.00
2022-08-08T19:38:23.722Z,23.00
2022-08-08T19:40:55.629Z,22.70
2022-08-08T19:43:28.637Z,22.60
2022-08-08T19:46:01.113Z,22.60
2022-08-08T19:48:31.021Z,22.60
2022-08-08T19:51:03.150Z,22.50
2022-08-08T19:53:52.356Z,22.50
2022-08-08T19:56:51.852Z,22.30
2022-08-08T19:59:23.809Z,22.20
2022-08-08T20:02:03.013Z,22.00
2022-08-08T20:04:34.147Z,22.00
2022-08-08T20:08:26.670Z,21.80
2022-08-08T20:09:55.817Z,21.80
2022-08-08T20:12:32.306Z,21.80
2022-08-08T20:15:14.103Z,21.80
2022-08-08T20:17:47.573Z,21.60
2022-08-08T20:20:20.702Z,21.40
2022-08-08T20:22:53.986Z,21.00
2022-08-08T20:25:24.759Z,20.90
2022-08-08T20:28:06.874Z,20.70
2022-08-08T20:30:55.740Z,20.60
2022-08-08T20:33:28.364Z,20.60
2022-08-08T20:36:22.164Z,20.30
2022-08-08T20:38:51.353Z,20.40
2022-08-08T20:41:19.428Z,20.30
2022-08-08T20:43:49.732Z,20.30
2022-08-08T20:46:25.556Z,20.40
2022-08-08T20:48:58.311Z,20.20
2022-08-08T20:51:32.361Z,20.30
2022-08-08T20:54:10.431Z,20.40
2022-08-08T20:57:05.914Z,19.90
2022-08-08T20:59:41.332Z,19.70
2022-08-08T21:02:12.569Z,19.90
2022-08-08T21:04:43.597Z,19.80
2022-08-08T21:07:16.498Z,19.80
2022-08-08T21:10:01.517Z,19.90
2022-08-08T21:12:33.170Z,19.80
2022-08-08T21:15:09.682Z,19.60
2022-08-08T21:17:38.975Z,19.60
2022-08-08T21:20:08.923Z,19.30
2022-08-08T21:22:37.925Z,19.20
2022-08-08T21:25:10.778Z,19.20
2022-08-08T21:28:14.326Z,19.20
2022-08-08T21:30:40.912Z,18.90
2022-08-08T21:33:11.001Z,18.80
2022-08-08T21:36:17.944Z,18.60
2022-08-08T21:38:28.147Z,18.50
2022-08-08T21:40:57.175Z,18.80
2022-08-08T21:43:33.571Z,18.70
2022-08-08T21:48:08.719Z,18.50
2022-08-08T21:48:55.309Z,18.40
2022-08-08T21:54:23.306Z,18.30
2022-08-08T21:54:48.525Z,18.30
2022-08-08T21:57:09.516Z,18.40
2022-08-08T22:00:01.964Z,18.10
2022-08-08T22:02:32.116Z,18.20
2022-08-08T22:05:02.155Z,18.00
2022-08-08T22:07:40.249Z,18.00
2022-08-08T22:10:28.744Z,17.90
2022-08-08T22:13:18.767Z,17.80
2022-08-08T22:15:58.856Z,17.80
2022-08-08T22:18:30.217Z,17.80
2022-08-08T22:21:13.727Z,17.70
2022-08-08T22:23:50.240Z,17.70
2022-08-08T22:26:28.872Z,17.60
2022-08-08T22:29:13.892Z,17.60
2022-08-08T22:31:58.234Z,17.50
2022-08-08T22:34:32.263Z,17.30
2022-08-08T22:37:00.930Z,17.50
2022-08-08T22:39:45.819Z,17.40
2022-08-08T22:42:27.557Z,17.40
2022-08-08T22:45:00.142Z,17.20
2022-08-08T22:47:37.882Z,17.10
2022-08-08T22:50:09.895Z,17.10
2022-08-08T22:54:31.734Z,17.00
2022-08-08T22:56:01.205Z,17.00
2022-08-08T22:58:35.062Z,16.80
2022-08-08T23:02:01.677Z,16.80
2022-08-08T23:03:57.972Z,17.00
2022-08-08T23:06:27.480Z,17.10
2022-08-08T23:09:00.152Z,16.90
2022-08-08T23:12:18.394Z,16.80
2022-08-08T23:14:21.427Z,16.60
2022-08-08T23:16:57.784Z,16.60
2022-08-08T23:19:32.515Z,16.80
2022-08-08T23:22:05.802Z,16.70
2022-08-08T23:24:41.257Z,16.70
2022-08-08T23:27:17.354Z,16.60
2022-08-08T23:30:06.104Z,16.60
2022-08-08T23:32:41.732Z,16.70
2022-08-08T23:35:17.226Z,16.60
2022-08-08T23:38:00.692Z,16.40
2022-08-08T23:40:41.226Z,16.40
2022-08-08T23:43:10.786Z,16.40
2022-08-08T23:49:05.068Z,16.40
2022-08-08T23:49:07.119Z,16.30
2022-08-08T23:52:03.430Z,16.50
2022-08-08T23:54:41.759Z,16.40
2022-08-08T23:57:00.580Z,16.40
2022-08-08T23:59:29.159Z,16.20
